sensor_id;sensor_type;location;lat;lon;timestamp;temperature;humidity
5041;DHT22;2539;52.568;13.364;2023-07-29T00:02:19;17.60;99.90
5041;DHT22;2539;52.568;13.364;2023-07-29T00:04:45;17.60;99.90
5041;DHT22;2539;52.568;13.364;2023-07-29T00:07:12;17.50;99.90
5041;DHT22;2539;52.568;13.364;2023-07-29T00:09:38;17.50;99.90
5041;DHT22;2539;52.568;13.364;2023-07-29T00:12:04;17.50;99.90
5041;DHT22;2539;52.568;13.364;2023-07-29T00:14:31;17.50;99.90
5041;DHT22;2539;52.568;13.364;2023-07-29T00:16:57;17.50;99.90
5041;DHT22;2539;52.568;13.364;2023-07-29T00:19:23;17.50;99.90
5041;DHT22;2539;52.568;13.364;2023-07-29T00:21:52;17.40;99.90
5041;DHT22;2539;52.568;13.364;2023-07-29T00:24:18;17.40;99.90
5041;DHT22;2539;52.568;13.364;2023-07-29T00:26:45;17.40;99.90
5041;DHT22;2539;52.568;13.364;2023-07-29T00:29:11;17.30;99.90
5041;DHT22;2539;52.568;13.364;2023-07-29T00:31:37;17.30;99.90
5041;DHT22;2539;52.568;13.364;2023-07-29T00:34:04;17.30;99.90
5041;DHT22;2539;52.568;13.364;2023-07-29T00:36:30;17.30;99.90
5041;DHT22;2539;52.568;13.364;2023-07-29T00:38:56;17.20;99.90
5041;DHT22;2539;52.568;13.364;2023-07-29T00:41:23;17.20;99.90
5041;DHT22;2539;52.568;13.364;2023-07-29T00:43:50;17.20;99.90
5041;DHT22;2539;52.568;13.364;2023-07-29T00:46:17;17.20;99.90
5041;DHT22;2539;52.568;13.364;2023-07-29T00:48:43;17.30;99.90
5041;DHT22;2539;52.568;13.364;2023-07-29T00:51:10;17.30;99.90
5041;DHT22;2539;52.568;13.364;2023-07-29T00:53:36;17.20;99.90
5041;DHT22;2539;52.568;13.364;2023-07-29T00:56:03;17.20;99.90
5041;DHT22;2539;52.568;13.364;2023-07-29T00:58:29;17.20;99.90
5041;DHT22;2539;52.568;13.364;2023-07-29T01:00:56;17.20;99.90
5041;DHT22;2539;52.568;13.364;2023-07-29T01:03:22;17.20;99.90
5041;DHT22;2539;52.568;13.364;2023-07-29T01:06:01;17.10;99.90
5041;DHT22;2539;52.568;13.364;2023-07-29T01:08:51;17.10;99.90
5041;DHT22;2539;52.568;13.364;2023-07-29T01:11:31;17.10;99.90
5041;DHT22;2539;52.568;13.364;2023-07-29T01:14:24;17.10;99.90
5041;DHT22;2539;52.568;13.364;2023-07-29T01:16:58;17.10;99.90
5041;DHT22;2539;52.568;13.364;2023-07-29T01:22:10;17.10;99.90
5041;DHT22;2539;52.568;13.364;2023-07-29T01:24:38;17.00;99.90
5041;DHT22;2539;52.568;13.364;2023-07-29T01:27:05;17.00;99.90
5041;DHT22;2539;52.568;13.364;2023-07-29T01:29:31;17.00;99.90
5041;DHT22;2539;52.568;13.364;2023-07-29T01:32:04;16.90;99.90
5041;DHT22;2539;52.568;13.364;2023-07-29T01:34:53;17.00;99.90
5041;DHT22;2539;52.568;13.364;2023-07-29T01:37:26;16.90;99.90
5041;DHT22;2539;52.568;13.364;2023-07-29T01:39:57;16.90;99.90
5041;DHT22;2539;52.568;13.364;2023-07-29T01:42:25;16.90;99.90
5041;DHT22;2539;52.568;13.364;2023-07-29T01:44:52;16.90;99.90
5041;DHT22;2539;52.568;13.364;2023-07-29T01:47:17;16.90;99.90
5041;DHT22;2539;52.568;13.364;2023-07-29T01:49:43;16.90;99.90
5041;DHT22;2539;52.568;13.364;2023-07-29T01:52:09;16.90;99.90
5041;DHT22;2539;52.568;13.364;2023-07-29T01:54:34;16.90;99.90
5041;DHT22;2539;52.568;13.364;2023-07-29T01:57:01;16.90;99.90
5041;DHT22;2539;52.568;13.364;2023-07-29T01:59:27;16.90;99.90
5041;DHT22;2539;52.568;13.364;2023-07-29T02:01:53;16.90;99.90
5041;DHT22;2539;52.568;13.364;2023-07-29T02:04:19;16.90;99.90
5041;DHT22;2539;52.568;13.364;2023-07-29T02:06:46;16.90;99.90
5041;DHT22;2539;52.568;13.364;2023-07-29T02:09:12;16.90;99.90
5041;DHT22;2539;52.568;13.364;2023-07-29T02:11:38;16.80;99.90
5041;DHT22;2539;52.568;13.364;2023-07-29T02:14:04;16.80;99.90
5041;DHT22;2539;52.568;13.364;2023-07-29T02:16:31;16.80;99.90
5041;DHT22;2539;52.568;13.364;2023-07-29T02:18:58;16.80;99.90
5041;DHT22;2539;52.568;13.364;2023-07-29T02:21:24;16.70;99.90
5041;DHT22;2539;52.568;13.364;2023-07-29T02:23:51;16.70;99.90
5041;DHT22;2539;52.568;13.364;2023-07-29T02:26:17;16.70;99.90
5041;DHT22;2539;52.568;13.364;2023-07-29T02:28:43;16.70;99.90
5041;DHT22;2539;52.568;13.364;2023-07-29T02:31:22;16.60;99.90
5041;DHT22;2539;52.568;13.364;2023-07-29T02:33:49;16.70;99.90
5041;DHT22;2539;52.568;13.364;2023-07-29T02:36:15;16.60;99.90
5041;DHT22;2539;52.568;13.364;2023-07-29T02:38:42;16.60;99.90
5041;DHT22;2539;52.568;13.364;2023-07-29T02:41:11;16.60;99.90
5041;DHT22;2539;52.568;13.364;2023-07-29T02:43:38;16.60;99.90
5041;DHT22;2539;52.568;13.364;2023-07-29T02:46:04;16.60;99.90
5041;DHT22;2539;52.568;13.364;2023-07-29T02:48:30;16.60;99.90
5041;DHT22;2539;52.568;13.364;2023-07-29T02:50:57;16.60;99.90
5041;DHT22;2539;52.568;13.364;2023-07-29T02:53:23;16.60;99.90
5041;DHT22;2539;52.568;13.364;2023-07-29T02:55:49;16.60;99.90
5041;DHT22;2539;52.568;13.364;2023-07-29T02:58:15;16.50;99.90
5041;DHT22;2539;52.568;13.364;2023-07-29T03:00:42;16.50;99.90
5041;DHT22;2539;52.568;13.364;2023-07-29T03:03:09;16.50;99.90
5041;DHT22;2539;52.568;13.364;2023-07-29T03:05:35;16.50;99.90
5041;DHT22;2539;52.568;13.364;2023-07-29T03:08:02;16.40;99.90
5041;DHT22;2539;52.568;13.364;2023-07-29T03:10:28;16.50;99.90
5041;DHT22;2539;52.568;13.364;2023-07-29T03:12:54;16.40;99.90
5041;DHT22;2539;52.568;13.364;2023-07-29T03:15:24;16.40;99.90
5041;DHT22;2539;52.568;13.364;2023-07-29T03:17:51;16.40;99.90
5041;DHT22;2539;52.568;13.364;2023-07-29T03:20:19;16.40;99.90
5041;DHT22;2539;52.568;13.364;2023-07-29T03:22:46;16.40;99.90
5041;DHT22;2539;52.568;13.364;2023-07-29T03:25:13;16.40;99.90
5041;DHT22;2539;52.568;13.364;2023-07-29T03:27:39;16.40;99.90
5041;DHT22;2539;52.568;13.364;2023-07-29T03:30:06;16.40;99.90
5041;DHT22;2539;52.568;13.364;2023-07-29T03:32:33;16.40;99.90
5041;DHT22;2539;52.568;13.364;2023-07-29T03:34:59;16.40;99.90
5041;DHT22;2539;52.568;13.364;2023-07-29T03:37:25;16.40;99.90
5041;DHT22;2539;52.568;13.364;2023-07-29T03:39:52;16.40;99.90
5041;DHT22;2539;52.568;13.364;2023-07-29T03:42:18;16.40;99.90
5041;DHT22;2539;52.568;13.364;2023-07-29T03:44:44;16.40;99.90
5041;DHT22;2539;52.568;13.364;2023-07-29T03:47:10;16.40;99.90
5041;DHT22;2539;52.568;13.364;2023-07-29T03:49:37;16.50;99.90
5041;DHT22;2539;52.568;13.364;2023-07-29T03:52:03;16.50;99.90
5041;DHT22;2539;52.568;13.364;2023-07-29T03:54:29;16.50;99.90
5041;DHT22;2539;52.568;13.364;2023-07-29T03:56:56;16.40;99.90
5041;DHT22;2539;52.568;13.364;2023-07-29T03:59:22;16.50;99.90
5041;DHT22;2539;52.568;13.364;2023-07-29T04:01:49;16.50;99.90
5041;DHT22;2539;52.568;13.364;2023-07-29T04:04:15;16.50;99.90
5041;DHT22;2539;52.568;13.364;2023-07-29T04:06:41;16.60;99.90
5041;DHT22;2539;52.568;13.364;2023-07-29T04:09:08;16.60;99.90
5041;DHT22;2539;52.568;13.364;2023-07-29T04:11:34;16.60;99.90
5041;DHT22;2539;52.568;13.364;2023-07-29T04:14:00;16.70;99.90
5041;DHT22;2539;52.568;13.364;2023-07-29T04:16:27;16.70;99.90
5041;DHT22;2539;52.568;13.364;2023-07-29T04:18:54;16.80;99.90
5041;DHT22;2539;52.568;13.364;2023-07-29T04:21:20;17.40;99.90
5041;DHT22;2539;52.568;13.364;2023-07-29T04:23:47;17.90;99.90
5041;DHT22;2539;52.568;13.364;2023-07-29T04:26:13;17.80;99.90
5041;DHT22;2539;52.568;13.364;2023-07-29T04:28:39;17.70;99.90
5041;DHT22;2539;52.568;13.364;2023-07-29T04:31:05;17.70;99.90
5041;DHT22;2539;52.568;13.364;2023-07-29T04:33:32;18.10;99.90
5041;DHT22;2539;52.568;13.364;2023-07-29T04:35:58;18.40;99.90
5041;DHT22;2539;52.568;13.364;2023-07-29T04:38:30;18.30;99.90
5041;DHT22;2539;52.568;13.364;2023-07-29T04:40:57;18.20;99.90
5041;DHT22;2539;52.568;13.364;2023-07-29T04:43:28;18.30;99.90
5041;DHT22;2539;52.568;13.364;2023-07-29T04:45:54;18.30;99.90
5041;DHT22;2539;52.568;13.364;2023-07-29T04:48:20;18.30;99.90
5041;DHT22;2539;52.568;13.364;2023-07-29T04:50:47;18.20;99.90
5041;DHT22;2539;52.568;13.364;2023-07-29T04:53:13;18.20;99.90
5041;DHT22;2539;52.568;13.364;2023-07-29T04:55:42;18.20;99.90
5041;DHT22;2539;52.568;13.364;2023-07-29T04:58:09;18.10;99.90
5041;DHT22;2539;52.568;13.364;2023-07-29T05:00:35;18.20;99.90
5041;DHT22;2539;52.568;13.364;2023-07-29T05:03:01;18.20;99.90
5041;DHT22;2539;52.568;13.364;2023-07-29T05:05:28;18.20;99.90
5041;DHT22;2539;52.568;13.364;2023-07-29T05:07:54;18.30;99.90
5041;DHT22;2539;52.568;13.364;2023-07-29T05:10:20;18.40;99.90
5041;DHT22;2539;52.568;13.364;2023-07-29T05:12:46;18.50;99.90
5041;DHT22;2539;52.568;13.364;2023-07-29T05:15:12;18.60;99.90
5041;DHT22;2539;52.568;13.364;2023-07-29T05:17:39;18.80;99.90
5041;DHT22;2539;52.568;13.364;2023-07-29T05:20:06;18.80;99.90
5041;DHT22;2539;52.568;13.364;2023-07-29T05:22:32;18.80;99.90
5041;DHT22;2539;52.568;13.364;2023-07-29T05:24:58;18.80;99.90
5041;DHT22;2539;52.568;13.364;2023-07-29T05:27:24;18.90;99.90
5041;DHT22;2539;52.568;13.364;2023-07-29T05:29:51;18.90;99.90
5041;DHT22;2539;52.568;13.364;2023-07-29T05:32:17;19.00;99.90
5041;DHT22;2539;52.568;13.364;2023-07-29T05:34:43;19.10;99.90
5041;DHT22;2539;52.568;13.364;2023-07-29T05:37:09;19.30;99.90
5041;DHT22;2539;52.568;13.364;2023-07-29T05:39:36;19.60;99.90
5041;DHT22;2539;52.568;13.364;2023-07-29T05:42:03;19.80;99.90
5041;DHT22;2539;52.568;13.364;2023-07-29T05:44:30;20.00;99.90
5041;DHT22;2539;52.568;13.364;2023-07-29T05:46:57;20.00;99.90
5041;DHT22;2539;52.568;13.364;2023-07-29T05:49:23;19.90;99.90
5041;DHT22;2539;52.568;13.364;2023-07-29T05:51:49;19.80;99.90
5041;DHT22;2539;52.568;13.364;2023-07-29T05:54:18;19.60;99.90
5041;DHT22;2539;52.568;13.364;2023-07-29T05:56:45;19.50;99.90
5041;DHT22;2539;52.568;13.364;2023-07-29T05:59:11;19.40;99.90
5041;DHT22;2539;52.568;13.364;2023-07-29T06:01:37;19.30;99.90
5041;DHT22;2539;52.568;13.364;2023-07-29T06:04:04;19.40;99.90
5041;DHT22;2539;52.568;13.364;2023-07-29T06:06:30;19.40;99.90
5041;DHT22;2539;52.568;13.364;2023-07-29T06:08:56;19.50;99.90
5041;DHT22;2539;52.568;13.364;2023-07-29T06:11:22;19.50;99.90
5041;DHT22;2539;52.568;13.364;2023-07-29T06:13:48;19.60;99.90
5041;DHT22;2539;52.568;13.364;2023-07-29T06:16:15;19.70;99.90
5041;DHT22;2539;52.568;13.364;2023-07-29T06:18:41;19.70;99.90
5041;DHT22;2539;52.568;13.364;2023-07-29T06:21:07;19.70;99.90
5041;DHT22;2539;52.568;13.364;2023-07-29T06:23:34;19.70;99.90
5041;DHT22;2539;52.568;13.364;2023-07-29T06:26:00;19.70;99.90
5041;DHT22;2539;52.568;13.364;2023-07-29T06:28:26;19.80;99.90
5041;DHT22;2539;52.568;13.364;2023-07-29T06:30:53;19.90;99.90
5041;DHT22;2539;52.568;13.364;2023-07-29T06:33:19;20.00;99.90
5041;DHT22;2539;52.568;13.364;2023-07-29T06:35:45;20.00;99.90
5041;DHT22;2539;52.568;13.364;2023-07-29T06:38:11;20.00;99.90
5041;DHT22;2539;52.568;13.364;2023-07-29T06:40:38;20.10;99.90
5041;DHT22;2539;52.568;13.364;2023-07-29T06:43:04;20.10;99.90
5041;DHT22;2539;52.568;13.364;2023-07-29T06:45:30;20.20;99.90
5041;DHT22;2539;52.568;13.364;2023-07-29T06:47:56;20.40;99.90
5041;DHT22;2539;52.568;13.364;2023-07-29T06:50:22;20.50;99.90
5041;DHT22;2539;52.568;13.364;2023-07-29T06:52:49;20.60;99.90
5041;DHT22;2539;52.568;13.364;2023-07-29T06:55:15;20.70;99.90
5041;DHT22;2539;52.568;13.364;2023-07-29T06:57:42;20.90;99.90
5041;DHT22;2539;52.568;13.364;2023-07-29T07:00:08;21.00;99.90
5041;DHT22;2539;52.568;13.364;2023-07-29T07:02:35;21.20;99.90
5041;DHT22;2539;52.568;13.364;2023-07-29T07:05:01;21.60;99.90
5041;DHT22;2539;52.568;13.364;2023-07-29T07:07:28;21.80;99.90
5041;DHT22;2539;52.568;13.364;2023-07-29T07:09:54;22.00;99.90
5041;DHT22;2539;52.568;13.364;2023-07-29T07:12:20;22.20;99.90
5041;DHT22;2539;52.568;13.364;2023-07-29T07:14:47;22.20;99.90
5041;DHT22;2539;52.568;13.364;2023-07-29T07:17:13;22.20;99.90
5041;DHT22;2539;52.568;13.364;2023-07-29T07:19:39;22.40;99.90
5041;DHT22;2539;52.568;13.364;2023-07-29T07:22:06;22.50;99.90
5041;DHT22;2539;52.568;13.364;2023-07-29T07:24:32;22.40;99.90
5041;DHT22;2539;52.568;13.364;2023-07-29T07:26:58;22.50;99.90
5041;DHT22;2539;52.568;13.364;2023-07-29T07:29:24;22.60;99.90
5041;DHT22;2539;52.568;13.364;2023-07-29T07:31:52;22.60;99.90
5041;DHT22;2539;52.568;13.364;2023-07-29T07:34:20;22.60;99.90
5041;DHT22;2539;52.568;13.364;2023-07-29T07:36:46;22.60;99.90
5041;DHT22;2539;52.568;13.364;2023-07-29T07:39:13;22.50;99.90
5041;DHT22;2539;52.568;13.364;2023-07-29T07:41:40;22.70;99.90
5041;DHT22;2539;52.568;13.364;2023-07-29T07:44:07;22.90;99.90
5041;DHT22;2539;52.568;13.364;2023-07-29T07:46:33;22.90;99.90
5041;DHT22;2539;52.568;13.364;2023-07-29T07:48:59;22.90;99.90
5041;DHT22;2539;52.568;13.364;2023-07-29T07:51:26;23.30;99.90
5041;DHT22;2539;52.568;13.364;2023-07-29T07:53:52;23.00;99.90
5041;DHT22;2539;52.568;13.364;2023-07-29T07:56:18;22.70;99.90
5041;DHT22;2539;52.568;13.364;2023-07-29T07:58:44;22.70;99.90
5041;DHT22;2539;52.568;13.364;2023-07-29T08:01:11;22.50;99.90
5041;DHT22;2539;52.568;13.364;2023-07-29T08:03:37;22.60;99.90
5041;DHT22;2539;52.568;13.364;2023-07-29T08:06:04;22.40;99.90
5041;DHT22;2539;52.568;13.364;2023-07-29T08:08:30;22.40;99.90
5041;DHT22;2539;52.568;13.364;2023-07-29T08:10:57;22.50;99.90
5041;DHT22;2539;52.568;13.364;2023-07-29T08:13:24;22.40;99.90
5041;DHT22;2539;52.568;13.364;2023-07-29T08:15:51;22.60;99.90
5041;DHT22;2539;52.568;13.364;2023-07-29T08:18:18;22.90;99.90
5041;DHT22;2539;52.568;13.364;2023-07-29T08:20:58;23.10;99.90
5041;DHT22;2539;52.568;13.364;2023-07-29T08:23:25;23.40;99.90
5041;DHT22;2539;52.568;13.364;2023-07-29T08:25:56;23.70;99.90
5041;DHT22;2539;52.568;13.364;2023-07-29T08:28:31;24.10;99.90
5041;DHT22;2539;52.568;13.364;2023-07-29T08:30:58;24.20;99.90
5041;DHT22;2539;52.568;13.364;2023-07-29T08:33:27;24.50;99.90
5041;DHT22;2539;52.568;13.364;2023-07-29T08:35:53;24.50;99.90
5041;DHT22;2539;52.568;13.364;2023-07-29T08:38:20;24.10;99.90
5041;DHT22;2539;52.568;13.364;2023-07-29T08:41:10;24.20;99.90
5041;DHT22;2539;52.568;13.364;2023-07-29T08:43:39;24.30;99.90
5041;DHT22;2539;52.568;13.364;2023-07-29T08:46:08;24.30;99.90
5041;DHT22;2539;52.568;13.364;2023-07-29T08:48:42;24.60;99.90
5041;DHT22;2539;52.568;13.364;2023-07-29T08:51:09;24.90;99.90
5041;DHT22;2539;52.568;13.364;2023-07-29T08:53:36;25.10;99.90
5041;DHT22;2539;52.568;13.364;2023-07-29T08:56:03;25.20;99.90
5041;DHT22;2539;52.568;13.364;2023-07-29T08:58:29;25.10;99.90
5041;DHT22;2539;52.568;13.364;2023-07-29T09:00:56;25.00;99.90
5041;DHT22;2539;52.568;13.364;2023-07-29T09:03:22;24.60;99.90
5041;DHT22;2539;52.568;13.364;2023-07-29T09:05:48;24.60;99.90
5041;DHT22;2539;52.568;13.364;2023-07-29T09:08:15;24.50;99.90
5041;DHT22;2539;52.568;13.364;2023-07-29T09:10:41;24.60;99.90
5041;DHT22;2539;52.568;13.364;2023-07-29T09:13:07;24.60;99.90
5041;DHT22;2539;52.568;13.364;2023-07-29T09:15:35;24.70;99.90
5041;DHT22;2539;52.568;13.364;2023-07-29T09:18:15;24.20;99.90
5041;DHT22;2539;52.568;13.364;2023-07-29T09:20:42;24.40;99.90
5041;DHT22;2539;52.568;13.364;2023-07-29T09:23:10;24.70;99.90
5041;DHT22;2539;52.568;13.364;2023-07-29T09:25:37;24.90;99.90
5041;DHT22;2539;52.568;13.364;2023-07-29T09:28:14;24.80;99.90
5041;DHT22;2539;52.568;13.364;2023-07-29T09:30:42;24.70;99.90
5041;DHT22;2539;52.568;13.364;2023-07-29T09:33:11;24.50;99.90
5041;DHT22;2539;52.568;13.364;2023-07-29T09:35:38;24.40;99.90
5041;DHT22;2539;52.568;13.364;2023-07-29T09:38:05;24.40;99.90
5041;DHT22;2539;52.568;13.364;2023-07-29T09:40:39;24.70;99.90
5041;DHT22;2539;52.568;13.364;2023-07-29T09:43:08;24.40;99.90
5041;DHT22;2539;52.568;13.364;2023-07-29T09:45:36;24.90;99.90
5041;DHT22;2539;52.568;13.364;2023-07-29T09:48:04;25.10;99.90
5041;DHT22;2539;52.568;13.364;2023-07-29T09:50:36;25.50;99.90
5041;DHT22;2539;52.568;13.364;2023-07-29T09:53:03;25.70;99.90
5041;DHT22;2539;52.568;13.364;2023-07-29T09:55:32;25.90;99.90
5041;DHT22;2539;52.568;13.364;2023-07-29T09:58:00;26.00;99.90
5041;DHT22;2539;52.568;13.364;2023-07-29T10:00:29;26.00;99.90
5041;DHT22;2539;52.568;13.364;2023-07-29T10:02:57;26.10;99.90
5041;DHT22;2539;52.568;13.364;2023-07-29T10:05:26;26.10;99.90
5041;DHT22;2539;52.568;13.364;2023-07-29T10:07:54;26.20;99.90
5041;DHT22;2539;52.568;13.364;2023-07-29T10:10:21;26.40;99.90
5041;DHT22;2539;52.568;13.364;2023-07-29T10:12:47;26.60;99.90
5041;DHT22;2539;52.568;13.364;2023-07-29T10:15:14;26.70;99.90
5041;DHT22;2539;52.568;13.364;2023-07-29T10:17:41;26.90;99.90
5041;DHT22;2539;52.568;13.364;2023-07-29T10:20:09;26.80;99.90
5041;DHT22;2539;52.568;13.364;2023-07-29T10:22:38;26.60;99.90
5041;DHT22;2539;52.568;13.364;2023-07-29T10:25:08;26.40;99.90
5041;DHT22;2539;52.568;13.364;2023-07-29T10:30:10;25.90;99.90
5041;DHT22;2539;52.568;13.364;2023-07-29T10:32:38;25.60;99.90
5041;DHT22;2539;52.568;13.364;2023-07-29T10:35:05;25.30;99.90
5041;DHT22;2539;52.568;13.364;2023-07-29T10:37:31;25.00;99.90
5041;DHT22;2539;52.568;13.364;2023-07-29T10:39:57;24.90;99.90
5041;DHT22;2539;52.568;13.364;2023-07-29T10:42:23;24.90;99.90
5041;DHT22;2539;52.568;13.364;2023-07-29T10:44:51;25.00;99.90
5041;DHT22;2539;52.568;13.364;2023-07-29T10:47:26;25.20;99.90
5041;DHT22;2539;52.568;13.364;2023-07-29T10:49:57;25.30;99.90
5041;DHT22;2539;52.568;13.364;2023-07-29T10:52:39;25.20;99.90
5041;DHT22;2539;52.568;13.364;2023-07-29T10:55:29;25.20;99.90
5041;DHT22;2539;52.568;13.364;2023-07-29T10:58:13;25.00;99.90
5041;DHT22;2539;52.568;13.364;2023-07-29T11:00:44;24.80;99.90
5041;DHT22;2539;52.568;13.364;2023-07-29T11:03:12;24.50;99.90
5041;DHT22;2539;52.568;13.364;2023-07-29T11:05:51;24.10;99.90
5041;DHT22;2539;52.568;13.364;2023-07-29T11:08:29;23.20;99.90
5041;DHT22;2539;52.568;13.364;2023-07-29T11:11:21;22.80;99.90
5041;DHT22;2539;52.568;13.364;2023-07-29T11:13:47;22.40;99.90
5041;DHT22;2539;52.568;13.364;2023-07-29T11:16:16;22.20;99.90
5041;DHT22;2539;52.568;13.364;2023-07-29T11:18:43;22.00;99.90
5041;DHT22;2539;52.568;13.364;2023-07-29T11:21:10;21.90;99.90
5041;DHT22;2539;52.568;13.364;2023-07-29T11:23:36;20.80;99.90
5041;DHT22;2539;52.568;13.364;2023-07-29T11:26:03;19.90;99.90
5041;DHT22;2539;52.568;13.364;2023-07-29T11:28:30;19.40;99.90
5041;DHT22;2539;52.568;13.364;2023-07-29T11:30:56;19.10;99.90
5041;DHT22;2539;52.568;13.364;2023-07-29T11:33:24;18.90;99.90
5041;DHT22;2539;52.568;13.364;2023-07-29T11:35:51;19.00;99.90
5041;DHT22;2539;52.568;13.364;2023-07-29T11:38:19;19.20;99.90
5041;DHT22;2539;52.568;13.364;2023-07-29T11:43:22;19.60;99.90
5041;DHT22;2539;52.568;13.364;2023-07-29T11:45:48;19.70;99.90
5041;DHT22;2539;52.568;13.364;2023-07-29T11:48:14;19.80;99.90
5041;DHT22;2539;52.568;13.364;2023-07-29T11:50:41;19.90;99.90
5041;DHT22;2539;52.568;13.364;2023-07-29T11:53:07;20.00;99.90
5041;DHT22;2539;52.568;13.364;2023-07-29T11:55:33;20.10;99.90
5041;DHT22;2539;52.568;13.364;2023-07-29T11:58:01;20.30;99.90
5041;DHT22;2539;52.568;13.364;2023-07-29T12:00:27;20.40;99.90
5041;DHT22;2539;52.568;13.364;2023-07-29T12:02:54;20.50;99.90
5041;DHT22;2539;52.568;13.364;2023-07-29T12:05:22;20.50;99.90
5041;DHT22;2539;52.568;13.364;2023-07-29T12:07:49;20.50;99.90
5041;DHT22;2539;52.568;13.364;2023-07-29T12:10:15;20.50;99.90
5041;DHT22;2539;52.568;13.364;2023-07-29T12:12:48;20.70;99.90
5041;DHT22;2539;52.568;13.364;2023-07-29T12:15:23;20.70;99.90
5041;DHT22;2539;52.568;13.364;2023-07-29T12:17:53;20.90;99.90
5041;DHT22;2539;52.568;13.364;2023-07-29T12:20:20;21.00;99.90
5041;DHT22;2539;52.568;13.364;2023-07-29T12:22:52;21.10;99.90
5041;DHT22;2539;52.568;13.364;2023-07-29T12:25:18;21.30;99.90
5041;DHT22;2539;52.568;13.364;2023-07-29T12:27:45;21.40;99.90
5041;DHT22;2539;52.568;13.364;2023-07-29T12:30:11;21.30;99.90
5041;DHT22;2539;52.568;13.364;2023-07-29T12:32:44;21.10;99.90
5041;DHT22;2539;52.568;13.364;2023-07-29T12:35:11;20.90;99.90
5041;DHT22;2539;52.568;13.364;2023-07-29T12:37:38;20.90;99.90
5041;DHT22;2539;52.568;13.364;2023-07-29T12:40:20;21.20;99.90
5041;DHT22;2539;52.568;13.364;2023-07-29T12:42:48;21.50;99.90
5041;DHT22;2539;52.568;13.364;2023-07-29T12:45:17;21.90;99.90
5041;DHT22;2539;52.568;13.364;2023-07-29T12:47:44;22.20;99.90
5041;DHT22;2539;52.568;13.364;2023-07-29T12:50:10;22.50;99.90
5041;DHT22;2539;52.568;13.364;2023-07-29T12:52:37;22.70;99.90
5041;DHT22;2539;52.568;13.364;2023-07-29T12:55:03;23.00;99.90
5041;DHT22;2539;52.568;13.364;2023-07-29T12:57:30;23.30;99.90
5041;DHT22;2539;52.568;13.364;2023-07-29T12:59:56;23.60;99.90
5041;DHT22;2539;52.568;13.364;2023-07-29T13:02:22;23.70;99.90
5041;DHT22;2539;52.568;13.364;2023-07-29T13:04:49;24.00;99.90
5041;DHT22;2539;52.568;13.364;2023-07-29T13:07:15;24.20;99.90
5041;DHT22;2539;52.568;13.364;2023-07-29T13:09:41;24.30;99.90
5041;DHT22;2539;52.568;13.364;2023-07-29T13:12:07;24.40;99.90
5041;DHT22;2539;52.568;13.364;2023-07-29T13:14:34;24.80;99.90
5041;DHT22;2539;52.568;13.364;2023-07-29T13:17:00;24.90;99.90
5041;DHT22;2539;52.568;13.364;2023-07-29T13:19:26;25.10;99.90
5041;DHT22;2539;52.568;13.364;2023-07-29T13:21:52;25.00;99.90
5041;DHT22;2539;52.568;13.364;2023-07-29T13:24:19;24.90;99.90
5041;DHT22;2539;52.568;13.364;2023-07-29T13:26:45;24.90;99.90
5041;DHT22;2539;52.568;13.364;2023-07-29T13:29:11;24.20;99.90
5041;DHT22;2539;52.568;13.364;2023-07-29T13:31:37;23.90;99.90
5041;DHT22;2539;52.568;13.364;2023-07-29T13:34:03;24.00;99.90
5041;DHT22;2539;52.568;13.364;2023-07-29T13:36:30;24.00;99.90
5041;DHT22;2539;52.568;13.364;2023-07-29T13:38:56;24.10;99.90
5041;DHT22;2539;52.568;13.364;2023-07-29T13:41:22;24.40;99.90
5041;DHT22;2539;52.568;13.364;2023-07-29T13:43:48;24.40;99.90
5041;DHT22;2539;52.568;13.364;2023-07-29T13:46:14;24.50;99.90
5041;DHT22;2539;52.568;13.364;2023-07-29T13:48:41;25.10;99.90
5041;DHT22;2539;52.568;13.364;2023-07-29T13:51:07;25.20;99.90
5041;DHT22;2539;52.568;13.364;2023-07-29T13:53:32;24.00;99.90
5041;DHT22;2539;52.568;13.364;2023-07-29T13:55:58;24.00;99.90
5041;DHT22;2539;52.568;13.364;2023-07-29T13:58:24;24.50;99.90
5041;DHT22;2539;52.568;13.364;2023-07-29T14:00:49;24.70;99.90
5041;DHT22;2539;52.568;13.364;2023-07-29T14:03:15;24.80;99.90
5041;DHT22;2539;52.568;13.364;2023-07-29T14:05:42;25.00;99.90
5041;DHT22;2539;52.568;13.364;2023-07-29T14:08:08;25.60;99.90
5041;DHT22;2539;52.568;13.364;2023-07-29T14:10:34;25.60;99.90
5041;DHT22;2539;52.568;13.364;2023-07-29T14:13:00;25.60;99.90
5041;DHT22;2539;52.568;13.364;2023-07-29T14:15:26;25.30;99.90
5041;DHT22;2539;52.568;13.364;2023-07-29T14:17:54;24.80;99.90
5041;DHT22;2539;52.568;13.364;2023-07-29T14:20:20;24.70;99.90
5041;DHT22;2539;52.568;13.364;2023-07-29T14:22:47;24.10;99.90
5041;DHT22;2539;52.568;13.364;2023-07-29T14:25:14;23.70;99.90
5041;DHT22;2539;52.568;13.364;2023-07-29T14:27:40;23.20;99.90
5041;DHT22;2539;52.568;13.364;2023-07-29T14:30:07;23.00;99.90
5041;DHT22;2539;52.568;13.364;2023-07-29T14:32:33;23.20;99.90
5041;DHT22;2539;52.568;13.364;2023-07-29T14:35:00;23.80;99.90
5041;DHT22;2539;52.568;13.364;2023-07-29T14:37:30;24.10;99.90
5041;DHT22;2539;52.568;13.364;2023-07-29T14:39:59;24.30;99.90
5041;DHT22;2539;52.568;13.364;2023-07-29T14:42:26;24.00;99.90
5041;DHT22;2539;52.568;13.364;2023-07-29T14:44:53;23.80;99.90
5041;DHT22;2539;52.568;13.364;2023-07-29T14:47:20;23.90;99.90
5041;DHT22;2539;52.568;13.364;2023-07-29T14:49:46;23.40;99.90
5041;DHT22;2539;52.568;13.364;2023-07-29T14:52:12;23.50;99.90
5041;DHT22;2539;52.568;13.364;2023-07-29T14:54:38;23.70;99.90
5041;DHT22;2539;52.568;13.364;2023-07-29T14:57:06;23.70;99.90
5041;DHT22;2539;52.568;13.364;2023-07-29T14:59:33;23.60;99.90
5041;DHT22;2539;52.568;13.364;2023-07-29T15:01:59;24.00;99.90
5041;DHT22;2539;52.568;13.364;2023-07-29T15:04:25;24.10;99.90
5041;DHT22;2539;52.568;13.364;2023-07-29T15:06:51;24.30;99.90
5041;DHT22;2539;52.568;13.364;2023-07-29T15:09:18;24.20;99.90
5041;DHT22;2539;52.568;13.364;2023-07-29T15:11:44;24.10;99.90
5041;DHT22;2539;52.568;13.364;2023-07-29T15:14:10;23.80;99.90
5041;DHT22;2539;52.568;13.364;2023-07-29T15:16:36;23.50;99.90
5041;DHT22;2539;52.568;13.364;2023-07-29T15:19:05;23.10;99.90
5041;DHT22;2539;52.568;13.364;2023-07-29T15:21:31;23.00;99.90
5041;DHT22;2539;52.568;13.364;2023-07-29T15:23:59;22.80;99.90
5041;DHT22;2539;52.568;13.364;2023-07-29T15:26:26;22.60;99.90
5041;DHT22;2539;52.568;13.364;2023-07-29T15:28:52;22.50;99.90
5041;DHT22;2539;52.568;13.364;2023-07-29T15:31:18;22.40;99.90
5041;DHT22;2539;52.568;13.364;2023-07-29T15:33:44;22.30;99.90
5041;DHT22;2539;52.568;13.364;2023-07-29T15:36:10;21.90;99.90
5041;DHT22;2539;52.568;13.364;2023-07-29T15:38:36;21.80;99.90
5041;DHT22;2539;52.568;13.364;2023-07-29T15:41:02;21.40;99.90
5041;DHT22;2539;52.568;13.364;2023-07-29T15:43:28;20.60;99.90
5041;DHT22;2539;52.568;13.364;2023-07-29T15:45:55;20.00;99.90
5041;DHT22;2539;52.568;13.364;2023-07-29T15:48:23;19.70;99.90
5041;DHT22;2539;52.568;13.364;2023-07-29T15:50:49;19.40;99.90
5041;DHT22;2539;52.568;13.364;2023-07-29T15:53:15;19.10;99.90
5041;DHT22;2539;52.568;13.364;2023-07-29T15:55:41;18.90;99.90